sensor_id;sensor_type;location;lat;lon;timestamp;P1;durP1;ratioP1;P2;durP2;ratioP2
39958;SDS011;25639;53.634;9.880;2022-07-29T00:00:42;3.55;;;1.48;;
39958;SDS011;25639;53.634;9.880;2022-07-29T00:03:09;3.83;;;1.50;;
39958;SDS011;25639;53.634;9.880;2022-07-29T00:05:35;4.25;;;1.58;;
39958;SDS011;25639;53.634;9.880;2022-07-29T00:08:01;4.45;;;1.52;;
39958;SDS011;25639;53.634;9.880;2022-07-29T00:10:26;3.22;;;1.50;;
39958;SDS011;25639;53.634;9.880;2022-07-29T00:12:51;4.05;;;1.52;;
39958;SDS011;25639;53.634;9.880;2022-07-29T00:15:17;2.55;;;1.40;;
39958;SDS011;25639;53.634;9.880;2022-07-29T00:17:42;4.57;;;1.35;;
39958;SDS011;25639;53.634;9.880;2022-07-29T00:20:07;3.05;;;1.35;;
39958;SDS011;25639;53.634;9.880;2022-07-29T00:22:36;3.22;;;1.42;;
39958;SDS011;25639;53.634;9.880;2022-07-29T00:25:02;5.63;;;1.50;;
39958;SDS011;25639;53.634;9.880;2022-07-29T00:27:28;1.70;;;1.17;;
39958;SDS011;25639;53.634;9.880;2022-07-29T00:29:53;4.28;;;1.63;;
39958;SDS011;25639;53.634;9.880;2022-07-29T00:32:19;3.42;;;1.80;;
39958;SDS011;25639;53.634;9.880;2022-07-29T00:34:44;1.92;;;1.23;;
39958;SDS011;25639;53.634;9.880;2022-07-29T00:37:28;3.70;;;1.77;;
39958;SDS011;25639;53.634;9.880;2022-07-29T00:39:53;4.68;;;1.40;;
39958;SDS011;25639;53.634;9.880;2022-07-29T00:42:18;4.97;;;1.60;;
39958;SDS011;25639;53.634;9.880;2022-07-29T00:44:44;4.93;;;1.50;;
39958;SDS011;25639;53.634;9.880;2022-07-29T00:47:10;4.32;;;1.35;;
39958;SDS011;25639;53.634;9.880;2022-07-29T00:49:37;3.70;;;1.50;;
39958;SDS011;25639;53.634;9.880;2022-07-29T00:52:04;4.05;;;1.50;;
39958;SDS011;25639;53.634;9.880;2022-07-29T00:54:30;2.00;;;1.30;;
39958;SDS011;25639;53.634;9.880;2022-07-29T00:56:57;3.78;;;1.95;;
39958;SDS011;25639;53.634;9.880;2022-07-29T00:59:23;4.70;;;1.48;;
39958;SDS011;25639;53.634;9.880;2022-07-29T01:01:49;4.57;;;1.52;;
39958;SDS011;25639;53.634;9.880;2022-07-29T01:04:14;5.18;;;1.48;;
39958;SDS011;25639;53.634;9.880;2022-07-29T01:06:40;4.75;;;1.60;;
39958;SDS011;25639;53.634;9.880;2022-07-29T01:09:06;3.17;;;1.60;;
39958;SDS011;25639;53.634;9.880;2022-07-29T01:11:32;4.93;;;1.63;;
39958;SDS011;25639;53.634;9.880;2022-07-29T01:13:59;4.60;;;1.60;;
39958;SDS011;25639;53.634;9.880;2022-07-29T01:16:26;2.88;;;1.60;;
39958;SDS011;25639;53.634;9.880;2022-07-29T01:19:04;4.93;;;1.75;;
39958;SDS011;25639;53.634;9.880;2022-07-29T01:21:48;5.47;;;1.60;;
39958;SDS011;25639;53.634;9.880;2022-07-29T01:24:29;6.43;;;1.83;;
39958;SDS011;25639;53.634;9.880;2022-07-29T01:29:59;6.75;;;1.88;;
39958;SDS011;25639;53.634;9.880;2022-07-29T01:32:28;3.88;;;1.90;;
39958;SDS011;25639;53.634;9.880;2022-07-29T01:35:04;3.97;;;1.67;;
39958;SDS011;25639;53.634;9.880;2022-07-29T01:37:36;5.60;;;1.85;;
39958;SDS011;25639;53.634;9.880;2022-07-29T01:40:10;7.22;;;1.80;;
39958;SDS011;25639;53.634;9.880;2022-07-29T01:42:52;6.18;;;2.03;;
39958;SDS011;25639;53.634;9.880;2022-07-29T01:45:30;5.70;;;1.77;;
39958;SDS011;25639;53.634;9.880;2022-07-29T01:50:44;4.20;;;1.83;;
39958;SDS011;25639;53.634;9.880;2022-07-29T01:53:14;6.95;;;2.53;;
39958;SDS011;25639;53.634;9.880;2022-07-29T01:55:44;4.18;;;1.90;;
39958;SDS011;25639;53.634;9.880;2022-07-29T01:58:10;2.72;;;1.80;;
39958;SDS011;25639;53.634;9.880;2022-07-29T02:00:38;6.15;;;2.20;;
39958;SDS011;25639;53.634;9.880;2022-07-29T02:03:07;4.95;;;2.25;;
39958;SDS011;25639;53.634;9.880;2022-07-29T02:05:35;7.70;;;2.60;;
39958;SDS011;25639;53.634;9.880;2022-07-29T02:08:02;6.55;;;2.08;;
39958;SDS011;25639;53.634;9.880;2022-07-29T02:10:31;6.30;;;2.00;;
39958;SDS011;25639;53.634;9.880;2022-07-29T02:12:59;10.00;;;2.58;;
39958;SDS011;25639;53.634;9.880;2022-07-29T02:15:27;4.03;;;2.30;;
39958;SDS011;25639;53.634;9.880;2022-07-29T02:17:56;8.35;;;2.58;;
39958;SDS011;25639;53.634;9.880;2022-07-29T02:20:25;5.82;;;2.45;;
39958;SDS011;25639;53.634;9.880;2022-07-29T02:22:51;6.05;;;1.90;;
39958;SDS011;25639;53.634;9.880;2022-07-29T02:25:19;4.85;;;2.38;;
39958;SDS011;25639;53.634;9.880;2022-07-29T02:27:47;5.85;;;2.10;;
39958;SDS011;25639;53.634;9.880;2022-07-29T02:30:15;5.07;;;2.40;;
39958;SDS011;25639;53.634;9.880;2022-07-29T02:32:41;6.60;;;2.58;;
39958;SDS011;25639;53.634;9.880;2022-07-29T02:35:09;5.47;;;2.08;;
39958;SDS011;25639;53.634;9.880;2022-07-29T02:37:37;3.35;;;2.15;;
39958;SDS011;25639;53.634;9.880;2022-07-29T02:40:04;5.53;;;2.25;;
39958;SDS011;25639;53.634;9.880;2022-07-29T02:42:33;9.02;;;2.55;;
39958;SDS011;25639;53.634;9.880;2022-07-29T02:45:00;5.25;;;2.17;;
39958;SDS011;25639;53.634;9.880;2022-07-29T02:47:44;7.38;;;2.45;;
39958;SDS011;25639;53.634;9.880;2022-07-29T02:50:17;6.18;;;1.80;;
39958;SDS011;25639;53.634;9.880;2022-07-29T02:52:57;5.90;;;2.20;;
39958;SDS011;25639;53.634;9.880;2022-07-29T02:55:26;5.40;;;2.50;;
39958;SDS011;25639;53.634;9.880;2022-07-29T02:58:01;8.57;;;2.35;;
39958;SDS011;25639;53.634;9.880;2022-07-29T03:00:47;6.95;;;2.55;;
39958;SDS011;25639;53.634;9.880;2022-07-29T03:03:17;5.50;;;2.60;;
39958;SDS011;25639;53.634;9.880;2022-07-29T03:05:43;7.18;;;2.65;;
39958;SDS011;25639;53.634;9.880;2022-07-29T03:08:10;5.03;;;2.47;;
39958;SDS011;25639;53.634;9.880;2022-07-29T03:10:39;6.45;;;2.35;;
39958;SDS011;25639;53.634;9.880;2022-07-29T03:13:07;6.90;;;2.50;;
39958;SDS011;25639;53.634;9.880;2022-07-29T03:15:34;6.82;;;2.67;;
39958;SDS011;25639;53.634;9.880;2022-07-29T03:18:00;6.85;;;2.35;;
39958;SDS011;25639;53.634;9.880;2022-07-29T03:20:26;7.95;;;3.35;;
39958;SDS011;25639;53.634;9.880;2022-07-29T03:22:51;6.13;;;2.90;;
39958;SDS011;25639;53.634;9.880;2022-07-29T03:25:17;14.35;;;3.28;;
39958;SDS011;25639;53.634;9.880;2022-07-29T03:27:44;8.63;;;2.55;;
39958;SDS011;25639;53.634;9.880;2022-07-29T03:30:11;4.07;;;2.33;;
39958;SDS011;25639;53.634;9.880;2022-07-29T03:32:38;4.25;;;2.25;;
39958;SDS011;25639;53.634;9.880;2022-07-29T03:35:04;6.65;;;2.45;;
39958;SDS011;25639;53.634;9.880;2022-07-29T03:37:31;5.40;;;2.15;;
39958;SDS011;25639;53.634;9.880;2022-07-29T03:39:58;6.90;;;2.30;;
39958;SDS011;25639;53.634;9.880;2022-07-29T03:42:25;7.80;;;2.80;;
39958;SDS011;25639;53.634;9.880;2022-07-29T03:45:02;9.90;;;2.50;;
39958;SDS011;25639;53.634;9.880;2022-07-29T03:47:30;5.95;;;2.53;;
39958;SDS011;25639;53.634;9.880;2022-07-29T03:49:59;8.90;;;2.42;;
39958;SDS011;25639;53.634;9.880;2022-07-29T03:52:27;12.00;;;2.47;;
39958;SDS011;25639;53.634;9.880;2022-07-29T03:54:52;10.38;;;2.50;;
39958;SDS011;25639;53.634;9.880;2022-07-29T03:57:19;9.10;;;2.60;;
39958;SDS011;25639;53.634;9.880;2022-07-29T03:59:48;5.60;;;2.50;;
39958;SDS011;25639;53.634;9.880;2022-07-29T04:02:15;9.50;;;3.05;;
39958;SDS011;25639;53.634;9.880;2022-07-29T04:04:41;7.55;;;3.00;;
39958;SDS011;25639;53.634;9.880;2022-07-29T04:07:06;7.35;;;2.60;;
39958;SDS011;25639;53.634;9.880;2022-07-29T04:09:32;7.07;;;2.85;;
39958;SDS011;25639;53.634;9.880;2022-07-29T04:11:57;10.95;;;2.70;;
39958;SDS011;25639;53.634;9.880;2022-07-29T04:14:22;8.30;;;2.78;;
39958;SDS011;25639;53.634;9.880;2022-07-29T04:16:47;5.75;;;2.72;;
39958;SDS011;25639;53.634;9.880;2022-07-29T04:19:13;6.18;;;2.50;;
39958;SDS011;25639;53.634;9.880;2022-07-29T04:21:39;6.65;;;2.47;;
39958;SDS011;25639;53.634;9.880;2022-07-29T04:24:05;7.15;;;2.42;;
39958;SDS011;25639;53.634;9.880;2022-07-29T04:26:31;6.00;;;2.60;;
39958;SDS011;25639;53.634;9.880;2022-07-29T04:28:56;10.85;;;2.65;;
39958;SDS011;25639;53.634;9.880;2022-07-29T04:31:21;9.27;;;2.50;;
39958;SDS011;25639;53.634;9.880;2022-07-29T04:33:46;8.63;;;3.38;;
39958;SDS011;25639;53.634;9.880;2022-07-29T04:36:12;7.65;;;2.70;;
39958;SDS011;25639;53.634;9.880;2022-07-29T04:38:37;8.57;;;2.75;;
39958;SDS011;25639;53.634;9.880;2022-07-29T04:41:03;8.48;;;2.78;;
39958;SDS011;25639;53.634;9.880;2022-07-29T04:43:28;10.50;;;3.10;;
39958;SDS011;25639;53.634;9.880;2022-07-29T04:45:54;7.57;;;2.67;;
39958;SDS011;25639;53.634;9.880;2022-07-29T04:48:19;8.52;;;2.33;;
39958;SDS011;25639;53.634;9.880;2022-07-29T04:50:45;11.18;;;2.83;;
39958;SDS011;25639;53.634;9.880;2022-07-29T04:53:10;8.18;;;2.65;;
39958;SDS011;25639;53.634;9.880;2022-07-29T04:55:35;6.93;;;2.92;;
39958;SDS011;25639;53.634;9.880;2022-07-29T04:58:01;9.30;;;2.63;;
39958;SDS011;25639;53.634;9.880;2022-07-29T05:00:27;12.73;;;3.13;;
39958;SDS011;25639;53.634;9.880;2022-07-29T05:02:52;7.75;;;2.70;;
39958;SDS011;25639;53.634;9.880;2022-07-29T05:05:17;8.38;;;2.88;;
39958;SDS011;25639;53.634;9.880;2022-07-29T05:07:43;11.35;;;2.80;;
39958;SDS011;25639;53.634;9.880;2022-07-29T05:10:08;9.40;;;2.97;;
39958;SDS011;25639;53.634;9.880;2022-07-29T05:12:34;7.63;;;2.55;;
39958;SDS011;25639;53.634;9.880;2022-07-29T05:14:59;14.00;;;2.92;;
39958;SDS011;25639;53.634;9.880;2022-07-29T05:17:24;4.90;;;2.70;;
39958;SDS011;25639;53.634;9.880;2022-07-29T05:19:50;5.90;;;2.90;;
39958;SDS011;25639;53.634;9.880;2022-07-29T05:22:16;8.32;;;2.63;;
39958;SDS011;25639;53.634;9.880;2022-07-29T05:24:44;4.88;;;2.50;;
39958;SDS011;25639;53.634;9.880;2022-07-29T05:27:10;9.25;;;3.15;;
39958;SDS011;25639;53.634;9.880;2022-07-29T05:29:35;8.15;;;2.65;;
39958;SDS011;25639;53.634;9.880;2022-07-29T05:32:00;10.43;;;2.92;;
39958;SDS011;25639;53.634;9.880;2022-07-29T05:34:26;9.63;;;3.17;;
39958;SDS011;25639;53.634;9.880;2022-07-29T05:36:51;10.95;;;3.10;;
39958;SDS011;25639;53.634;9.880;2022-07-29T05:39:17;8.93;;;2.30;;
39958;SDS011;25639;53.634;9.880;2022-07-29T05:41:42;6.70;;;2.88;;
39958;SDS011;25639;53.634;9.880;2022-07-29T05:44:07;6.90;;;2.67;;
39958;SDS011;25639;53.634;9.880;2022-07-29T05:46:32;10.48;;;3.05;;
39958;SDS011;25639;53.634;9.880;2022-07-29T05:48:58;13.95;;;2.63;;
39958;SDS011;25639;53.634;9.880;2022-07-29T05:51:23;9.05;;;2.38;;
39958;SDS011;25639;53.634;9.880;2022-07-29T05:53:48;8.70;;;2.50;;
39958;SDS011;25639;53.634;9.880;2022-07-29T05:56:13;6.00;;;2.72;;
39958;SDS011;25639;53.634;9.880;2022-07-29T05:58:39;8.18;;;2.83;;
39958;SDS011;25639;53.634;9.880;2022-07-29T06:01:04;12.55;;;3.22;;
39958;SDS011;25639;53.634;9.880;2022-07-29T06:03:30;7.97;;;2.90;;
39958;SDS011;25639;53.634;9.880;2022-07-29T06:05:55;5.35;;;2.45;;
39958;SDS011;25639;53.634;9.880;2022-07-29T06:08:20;8.25;;;3.17;;
39958;SDS011;25639;53.634;9.880;2022-07-29T06:10:45;9.23;;;2.83;;
39958;SDS011;25639;53.634;9.880;2022-07-29T06:13:11;8.00;;;2.72;;
39958;SDS011;25639;53.634;9.880;2022-07-29T06:15:37;9.80;;;3.45;;
39958;SDS011;25639;53.634;9.880;2022-07-29T06:18:03;10.05;;;3.17;;
39958;SDS011;25639;53.634;9.880;2022-07-29T06:20:29;6.80;;;2.40;;
39958;SDS011;25639;53.634;9.880;2022-07-29T06:22:54;8.70;;;2.80;;
39958;SDS011;25639;53.634;9.880;2022-07-29T06:25:20;7.30;;;2.45;;
39958;SDS011;25639;53.634;9.880;2022-07-29T06:27:46;9.27;;;3.05;;
39958;SDS011;25639;53.634;9.880;2022-07-29T06:30:11;8.05;;;2.38;;
39958;SDS011;25639;53.634;9.880;2022-07-29T06:32:37;5.97;;;2.60;;
39958;SDS011;25639;53.634;9.880;2022-07-29T06:35:02;8.02;;;2.72;;
39958;SDS011;25639;53.634;9.880;2022-07-29T06:37:28;9.93;;;2.80;;
39958;SDS011;25639;53.634;9.880;2022-07-29T06:39:53;7.95;;;2.58;;
39958;SDS011;25639;53.634;9.880;2022-07-29T06:42:45;6.03;;;2.47;;
39958;SDS011;25639;53.634;9.880;2022-07-29T06:45:10;5.97;;;2.60;;
39958;SDS011;25639;53.634;9.880;2022-07-29T06:47:36;5.85;;;2.65;;
39958;SDS011;25639;53.634;9.880;2022-07-29T06:50:02;11.35;;;2.35;;
39958;SDS011;25639;53.634;9.880;2022-07-29T06:52:27;9.88;;;2.90;;
39958;SDS011;25639;53.634;9.880;2022-07-29T06:54:53;9.73;;;2.63;;
39958;SDS011;25639;53.634;9.880;2022-07-29T06:57:20;6.75;;;2.40;;
39958;SDS011;25639;53.634;9.880;2022-07-29T06:59:45;11.70;;;2.70;;
39958;SDS011;25639;53.634;9.880;2022-07-29T07:02:11;9.20;;;2.80;;
39958;SDS011;25639;53.634;9.880;2022-07-29T07:04:36;6.65;;;2.15;;
39958;SDS011;25639;53.634;9.880;2022-07-29T07:07:01;6.47;;;2.72;;
39958;SDS011;25639;53.634;9.880;2022-07-29T07:09:26;13.02;;;2.60;;
39958;SDS011;25639;53.634;9.880;2022-07-29T07:11:52;7.40;;;2.58;;
39958;SDS011;25639;53.634;9.880;2022-07-29T07:14:17;4.95;;;2.30;;
39958;SDS011;25639;53.634;9.880;2022-07-29T07:16:42;7.63;;;2.45;;
39958;SDS011;25639;53.634;9.880;2022-07-29T07:19:07;8.40;;;2.45;;
39958;SDS011;25639;53.634;9.880;2022-07-29T07:21:33;5.55;;;2.50;;
39958;SDS011;25639;53.634;9.880;2022-07-29T07:23:59;5.03;;;2.50;;
39958;SDS011;25639;53.634;9.880;2022-07-29T07:26:24;9.88;;;2.40;;
39958;SDS011;25639;53.634;9.880;2022-07-29T07:28:50;7.93;;;2.47;;
39958;SDS011;25639;53.634;9.880;2022-07-29T07:31:16;9.77;;;2.10;;
39958;SDS011;25639;53.634;9.880;2022-07-29T07:33:41;10.25;;;2.55;;
39958;SDS011;25639;53.634;9.880;2022-07-29T07:36:06;8.90;;;2.33;;
39958;SDS011;25639;53.634;9.880;2022-07-29T07:38:32;6.65;;;2.42;;
39958;SDS011;25639;53.634;9.880;2022-07-29T07:40:57;5.80;;;2.58;;
39958;SDS011;25639;53.634;9.880;2022-07-29T07:43:22;7.47;;;2.20;;
39958;SDS011;25639;53.634;9.880;2022-07-29T07:45:48;6.32;;;2.45;;
39958;SDS011;25639;53.634;9.880;2022-07-29T07:48:13;5.28;;;1.95;;
39958;SDS011;25639;53.634;9.880;2022-07-29T07:50:38;9.63;;;2.47;;
39958;SDS011;25639;53.634;9.880;2022-07-29T07:53:04;7.38;;;2.45;;
39958;SDS011;25639;53.634;9.880;2022-07-29T07:55:29;6.85;;;2.13;;
39958;SDS011;25639;53.634;9.880;2022-07-29T07:57:54;12.27;;;2.50;;
39958;SDS011;25639;53.634;9.880;2022-07-29T08:00:20;4.85;;;2.20;;
39958;SDS011;25639;53.634;9.880;2022-07-29T08:02:46;6.93;;;2.22;;
39958;SDS011;25639;53.634;9.880;2022-07-29T08:05:12;6.97;;;2.55;;
39958;SDS011;25639;53.634;9.880;2022-07-29T08:07:41;5.57;;;2.40;;
39958;SDS011;25639;53.634;9.880;2022-07-29T08:10:07;9.68;;;2.67;;
39958;SDS011;25639;53.634;9.880;2022-07-29T08:12:33;10.60;;;2.60;;
39958;SDS011;25639;53.634;9.880;2022-07-29T08:14:58;5.93;;;2.40;;
39958;SDS011;25639;53.634;9.880;2022-07-29T08:17:23;4.90;;;2.20;;
39958;SDS011;25639;53.634;9.880;2022-07-29T08:19:49;4.85;;;2.28;;
39958;SDS011;25639;53.634;9.880;2022-07-29T08:22:14;11.25;;;2.40;;
39958;SDS011;25639;53.634;9.880;2022-07-29T08:24:40;7.85;;;2.35;;
39958;SDS011;25639;53.634;9.880;2022-07-29T08:27:09;7.38;;;2.40;;
39958;SDS011;25639;53.634;9.880;2022-07-29T08:29:35;5.53;;;2.08;;
39958;SDS011;25639;53.634;9.880;2022-07-29T08:32:01;6.45;;;2.50;;
39958;SDS011;25639;53.634;9.880;2022-07-29T08:34:27;6.63;;;2.63;;
39958;SDS011;25639;53.634;9.880;2022-07-29T08:36:53;7.50;;;2.90;;
39958;SDS011;25639;53.634;9.880;2022-07-29T08:39:19;7.70;;;2.85;;
39958;SDS011;25639;53.634;9.880;2022-07-29T08:41:44;3.75;;;2.10;;
39958;SDS011;25639;53.634;9.880;2022-07-29T08:44:10;8.25;;;2.30;;
39958;SDS011;25639;53.634;9.880;2022-07-29T08:46:38;6.03;;;2.28;;
39958;SDS011;25639;53.634;9.880;2022-07-29T08:49:04;4.80;;;2.28;;
39958;SDS011;25639;53.634;9.880;2022-07-29T08:51:30;8.13;;;2.38;;
39958;SDS011;25639;53.634;9.880;2022-07-29T08:53:56;6.45;;;2.05;;
39958;SDS011;25639;53.634;9.880;2022-07-29T08:56:22;5.43;;;2.13;;
39958;SDS011;25639;53.634;9.880;2022-07-29T08:58:48;5.05;;;2.30;;
39958;SDS011;25639;53.634;9.880;2022-07-29T09:01:16;9.70;;;2.53;;
39958;SDS011;25639;53.634;9.880;2022-07-29T09:03:43;8.50;;;2.28;;
39958;SDS011;25639;53.634;9.880;2022-07-29T09:06:11;10.73;;;2.70;;
39958;SDS011;25639;53.634;9.880;2022-07-29T09:08:39;8.07;;;2.50;;
39958;SDS011;25639;53.634;9.880;2022-07-29T09:11:04;5.75;;;2.30;;
39958;SDS011;25639;53.634;9.880;2022-07-29T09:13:32;6.20;;;2.55;;
39958;SDS011;25639;53.634;9.880;2022-07-29T09:15:57;8.48;;;2.40;;
39958;SDS011;25639;53.634;9.880;2022-07-29T09:21:03;5.57;;;2.30;;
39958;SDS011;25639;53.634;9.880;2022-07-29T09:24:02;7.97;;;2.35;;
39958;SDS011;25639;53.634;9.880;2022-07-29T09:28:59;10.57;;;2.42;;
39958;SDS011;25639;53.634;9.880;2022-07-29T09:31:34;6.25;;;2.15;;
39958;SDS011;25639;53.634;9.880;2022-07-29T09:34:03;4.90;;;1.70;;
39958;SDS011;25639;53.634;9.880;2022-07-29T09:36:29;5.50;;;1.85;;
39958;SDS011;25639;53.634;9.880;2022-07-29T09:38:58;6.75;;;1.80;;
39958;SDS011;25639;53.634;9.880;2022-07-29T09:41:25;7.13;;;1.67;;
39958;SDS011;25639;53.634;9.880;2022-07-29T09:46:21;4.00;;;1.98;;
39958;SDS011;25639;53.634;9.880;2022-07-29T09:49:05;6.68;;;1.73;;
39958;SDS011;25639;53.634;9.880;2022-07-29T09:51:31;5.65;;;1.67;;
39958;SDS011;25639;53.634;9.880;2022-07-29T09:53:56;5.90;;;1.63;;
39958;SDS011;25639;53.634;9.880;2022-07-29T09:56:40;7.43;;;1.67;;
39958;SDS011;25639;53.634;9.880;2022-07-29T09:59:06;6.00;;;1.55;;
39958;SDS011;25639;53.634;9.880;2022-07-29T10:01:33;6.00;;;2.03;;
39958;SDS011;25639;53.634;9.880;2022-07-29T10:03:59;6.22;;;1.70;;
39958;SDS011;25639;53.634;9.880;2022-07-29T10:06:25;7.30;;;1.67;;
39958;SDS011;25639;53.634;9.880;2022-07-29T10:08:50;7.95;;;1.70;;
39958;SDS011;25639;53.634;9.880;2022-07-29T10:11:17;7.20;;;2.03;;
39958;SDS011;25639;53.634;9.880;2022-07-29T10:13:45;4.60;;;1.88;;
39958;SDS011;25639;53.634;9.880;2022-07-29T10:16:13;6.63;;;1.67;;
39958;SDS011;25639;53.634;9.880;2022-07-29T10:18:40;7.00;;;1.88;;
39958;SDS011;25639;53.634;9.880;2022-07-29T10:21:08;2.50;;;1.60;;
39958;SDS011;25639;53.634;9.880;2022-07-29T10:23:35;5.45;;;1.73;;
39958;SDS011;25639;53.634;9.880;2022-07-29T10:26:01;6.22;;;1.90;;
39958;SDS011;25639;53.634;9.880;2022-07-29T10:28:28;5.93;;;1.80;;
39958;SDS011;25639;53.634;9.880;2022-07-29T10:30:58;6.10;;;1.80;;
39958;SDS011;25639;53.634;9.880;2022-07-29T10:36:26;6.97;;;1.77;;
39958;SDS011;25639;53.634;9.880;2022-07-29T10:39:31;3.65;;;1.55;;
39958;SDS011;25639;53.634;9.880;2022-07-29T10:44:40;3.60;;;1.60;;
39958;SDS011;25639;53.634;9.880;2022-07-29T10:47:06;7.82;;;2.05;;
39958;SDS011;25639;53.634;9.880;2022-07-29T10:49:32;4.45;;;1.70;;
39958;SDS011;25639;53.634;9.880;2022-07-29T10:52:07;3.78;;;1.48;;
39958;SDS011;25639;53.634;9.880;2022-07-29T11:05:18;4.05;;;1.40;;
39958;SDS011;25639;53.634;9.880;2022-07-29T11:10:36;2.72;;;1.40;;
39958;SDS011;25639;53.634;9.880;2022-07-29T11:13:02;5.05;;;1.48;;
39958;SDS011;25639;53.634;9.880;2022-07-29T11:15:27;4.50;;;1.55;;
39958;SDS011;25639;53.634;9.880;2022-07-29T11:20:39;4.03;;;1.60;;
39958;SDS011;25639;53.634;9.880;2022-07-29T11:23:22;10.10;;;1.50;;
39958;SDS011;25639;53.634;9.880;2022-07-29T11:31:16;6.25;;;1.60;;
39958;SDS011;25639;53.634;9.880;2022-07-29T11:33:44;5.75;;;1.45;;
39958;SDS011;25639;53.634;9.880;2022-07-29T11:36:14;6.63;;;1.33;;
39958;SDS011;25639;53.634;9.880;2022-07-29T11:38:40;6.05;;;1.80;;
39958;SDS011;25639;53.634;9.880;2022-07-29T11:41:19;7.88;;;1.52;;
39958;SDS011;25639;53.634;9.880;2022-07-29T11:49:20;2.88;;;1.45;;
39958;SDS011;25639;53.634;9.880;2022-07-29T11:51:51;4.03;;;1.73;;
39958;SDS011;25639;53.634;9.880;2022-07-29T11:54:21;6.82;;;1.63;;
39958;SDS011;25639;53.634;9.880;2022-07-29T11:59:16;11.60;;;1.98;;
39958;SDS011;25639;53.634;9.880;2022-07-29T12:01:56;5.30;;;1.60;;
39958;SDS011;25639;53.634;9.880;2022-07-29T12:04:23;3.60;;;1.40;;
39958;SDS011;25639;53.634;9.880;2022-07-29T12:06:50;6.82;;;1.55;;
39958;SDS011;25639;53.634;9.880;2022-07-29T12:09:18;7.00;;;1.20;;
39958;SDS011;25639;53.634;9.880;2022-07-29T12:11:43;5.28;;;1.80;;
39958;SDS011;25639;53.634;9.880;2022-07-29T12:14:29;4.32;;;1.55;;
39958;SDS011;25639;53.634;9.880;2022-07-29T12:16:57;6.68;;;1.60;;
39958;SDS011;25639;53.634;9.880;2022-07-29T12:19:23;9.10;;;1.63;;
39958;SDS011;25639;53.634;9.880;2022-07-29T12:21:50;12.45;;;1.75;;
39958;SDS011;25639;53.634;9.880;2022-07-29T12:24:17;6.60;;;1.60;;
39958;SDS011;25639;53.634;9.880;2022-07-29T12:26:53;5.15;;;1.55;;
39958;SDS011;25639;53.634;9.880;2022-07-29T12:29:23;4.97;;;1.30;;
39958;SDS011;25639;53.634;9.880;2022-07-29T12:31:52;4.63;;;1.25;;
39958;SDS011;25639;53.634;9.880;2022-07-29T12:34:24;6.75;;;1.40;;
39958;SDS011;25639;53.634;9.880;2022-07-29T12:36:53;3.92;;;1.35;;
39958;SDS011;25639;53.634;9.880;2022-07-29T12:39:18;6.95;;;1.30;;
39958;SDS011;25639;53.634;9.880;2022-07-29T12:41:44;5.45;;;1.50;;
39958;SDS011;25639;53.634;9.880;2022-07-29T12:44:10;7.03;;;1.50;;
39958;SDS011;25639;53.634;9.880;2022-07-29T12:46:35;4.93;;;1.50;;
39958;SDS011;25639;53.634;9.880;2022-07-29T12:49:01;6.45;;;2.00;;
39958;SDS011;25639;53.634;9.880;2022-07-29T12:51:28;6.97;;;1.50;;
39958;SDS011;25639;53.634;9.880;2022-07-29T12:56:30;2.88;;;1.42;;
39958;SDS011;25639;53.634;9.880;2022-07-29T12:58:56;3.85;;;1.60;;
39958;SDS011;25639;53.634;9.880;2022-07-29T13:01:21;5.60;;;1.73;;
39958;SDS011;25639;53.634;9.880;2022-07-29T13:06:57;2.70;;;1.77;;
39958;SDS011;25639;53.634;9.880;2022-07-29T13:09:19;6.72;;;1.63;;
39958;SDS011;25639;53.634;9.880;2022-07-29T13:11:51;3.47;;;1.45;;
39958;SDS011;25639;53.634;9.880;2022-07-29T13:14:33;7.03;;;1.30;;
39958;SDS011;25639;53.634;9.880;2022-07-29T13:17:07;5.15;;;1.50;;
39958;SDS011;25639;53.634;9.880;2022-07-29T13:19:44;7.05;;;1.75;;
39958;SDS011;25639;53.634;9.880;2022-07-29T13:22:12;3.70;;;1.27;;
39958;SDS011;25639;53.634;9.880;2022-07-29T13:24:49;4.53;;;1.50;;
39958;SDS011;25639;53.634;9.880;2022-07-29T13:27:18;9.88;;;2.10;;
39958;SDS011;25639;53.634;9.880;2022-07-29T13:29:44;4.88;;;1.60;;
39958;SDS011;25639;53.634;9.880;2022-07-29T13:32:10;9.57;;;2.00;;
39958;SDS011;25639;53.634;9.880;2022-07-29T13:34:36;9.55;;;1.88;;
39958;SDS011;25639;53.634;9.880;2022-07-29T13:37:02;7.40;;;2.28;;
39958;SDS011;25639;53.634;9.880;2022-07-29T13:39:27;4.90;;;1.77;;
39958;SDS011;25639;53.634;9.880;2022-07-29T13:41:52;10.32;;;2.35;;
39958;SDS011;25639;53.634;9.880;2022-07-29T13:44:18;8.05;;;2.20;;
39958;SDS011;25639;53.634;9.880;2022-07-29T13:46:43;3.95;;;1.80;;
39958;SDS011;25639;53.634;9.880;2022-07-29T13:49:08;4.43;;;2.05;;
39958;SDS011;25639;53.634;9.880;2022-07-29T13:51:33;8.30;;;1.88;;
39958;SDS011;25639;53.634;9.880;2022-07-29T13:53:59;4.95;;;1.88;;
39958;SDS011;25639;53.634;9.880;2022-07-29T13:56:24;5.38;;;1.63;;
39958;SDS011;25639;53.634;9.880;2022-07-29T13:58:49;5.38;;;2.03;;
39958;SDS011;25639;53.634;9.880;2022-07-29T14:01:14;6.00;;;1.98;;
39958;SDS011;25639;53.634;9.880;2022-07-29T14:03:40;9.57;;;2.08;;
39958;SDS011;25639;53.634;9.880;2022-07-29T14:06:08;6.88;;;2.13;;
39958;SDS011;25639;53.634;9.880;2022-07-29T14:08:33;7.03;;;1.60;;
39958;SDS011;25639;53.634;9.880;2022-07-29T14:10:59;8.52;;;1.88;;
39958;SDS011;25639;53.634;9.880;2022-07-29T14:13:24;7.10;;;2.13;;
39958;SDS011;25639;53.634;9.880;2022-07-29T14:15:49;7.57;;;1.70;;
39958;SDS011;25639;53.634;9.880;2022-07-29T14:18:14;8.15;;;2.17;;
39958;SDS011;25639;53.634;9.880;2022-07-29T14:20:40;6.38;;;1.83;;
39958;SDS011;25639;53.634;9.880;2022-07-29T14:23:05;10.68;;;2.20;;
39958;SDS011;25639;53.634;9.880;2022-07-29T14:25:30;9.10;;;2.05;;
39958;SDS011;25639;53.634;9.880;2022-07-29T14:27:56;5.53;;;1.95;;
39958;SDS011;25639;53.634;9.880;2022-07-29T14:30:21;5.68;;;2.00;;
39958;SDS011;25639;53.634;9.880;2022-07-29T14:32:46;7.07;;;2.03;;
39958;SDS011;25639;53.634;9.880;2022-07-29T14:35:12;6.13;;;1.73;;
39958;SDS011;25639;53.634;9.880;2022-07-29T14:37:37;7.43;;;2.05;;
39958;SDS011;25639;53.634;9.880;2022-07-29T14:40:03;5.43;;;2.00;;
39958;SDS011;25639;53.634;9.880;2022-07-29T14:42:29;5.50;;;2.10;;
39958;SDS011;25639;53.634;9.880;2022-07-29T14:44:56;7.93;;;2.30;;
39958;SDS011;25639;53.634;9.880;2022-07-29T14:47:22;7.63;;;1.95;;
39958;SDS011;25639;53.634;9.880;2022-07-29T14:49:48;5.65;;;2.00;;
39958;SDS011;25639;53.634;9.880;2022-07-29T14:52:13;5.78;;;2.28;;
39958;SDS011;25639;53.634;9.880;2022-07-29T14:54:39;8.50;;;2.20;;
39958;SDS011;25639;53.634;9.880;2022-07-29T14:57:04;6.30;;;1.90;;
39958;SDS011;25639;53.634;9.880;2022-07-29T14:59:29;6.78;;;2.00;;
39958;SDS011;25639;53.634;9.880;2022-07-29T15:01:54;7.97;;;2.13;;
39958;SDS011;25639;53.634;9.880;2022-07-29T15:04:20;7.35;;;1.90;;
39958;SDS011;25639;53.634;9.880;2022-07-29T15:06:45;8.38;;;2.33;;
39958;SDS011;25639;53.634;9.880;2022-07-29T15:09:11;12.05;;;2.30;;
39958;SDS011;25639;53.634;9.880;2022-07-29T15:11:36;4.55;;;2.03;;
39958;SDS011;25639;53.634;9.880;2022-07-29T15:14:03;7.97;;;2.17;;
39958;SDS011;25639;53.634;9.880;2022-07-29T15:16:28;5.63;;;1.88;;
39958;SDS011;25639;53.634;9.880;2022-07-29T15:18:53;7.88;;;1.83;;
39958;SDS011;25639;53.634;9.880;2022-07-29T15:21:19;6.75;;;1.92;;
39958;SDS011;25639;53.634;9.880;2022-07-29T15:23:44;5.97;;;2.35;;
39958;SDS011;25639;53.634;9.880;2022-07-29T15:26:09;6.05;;;2.05;;
39958;SDS011;25639;53.634;9.880;2022-07-29T15:28:35;5.07;;;1.92;;
39958;SDS011;25639;53.634;9.880;2022-07-29T15:31:00;8.25;;;2.20;;
39958;SDS011;25639;53.634;9.880;2022-07-29T15:33:26;4.75;;;2.00;;
39958;SDS011;25639;53.634;9.880;2022-07-29T15:35:51;6.55;;;2.10;;
39958;SDS011;25639;53.634;9.880;2022-07-29T15:38:16;8.38;;;1.90;;
39958;SDS011;25639;53.634;9.880;2022-07-29T15:40:42;11.85;;;2.35;;